createdAt,value
2018-09-21T00:00:46.221Z,23.53
2018-09-21T00:03:15.412Z,25.33
2018-09-21T00:05:44.668Z,18.90
2018-09-21T00:08:13.813Z,17.93
2018-09-21T00:10:42.965Z,18.37
2018-09-21T00:13:12.220Z,18.27
2018-09-21T00:15:41.400Z,21.03
2018-09-21T00:18:10.525Z,22.90
2018-09-21T00:20:39.714Z,22.60
2018-09-21T00:23:09.039Z,27.77
2018-09-21T00:25:38.177Z,20.50
2018-09-21T00:28:07.371Z,20.33
2018-09-21T00:30:40.271Z,23.50
2018-09-21T00:33:09.644Z,25.10
2018-09-21T00:35:39.018Z,26.03
2018-09-21T00:38:08.143Z,31.03
2018-09-21T00:40:37.436Z,24.87
2018-09-21T00:43:06.712Z,30.33
2018-09-21T00:45:35.845Z,21.53
2018-09-21T00:48:05.021Z,24.57
2018-09-21T00:50:34.158Z,30.17
2018-09-21T00:53:03.328Z,25.90
2018-09-21T00:55:32.655Z,23.43
2018-09-21T00:58:01.958Z,26.60
2018-09-21T01:00:31.101Z,31.00
2018-09-21T01:03:03.598Z,32.13
2018-09-21T01:05:32.859Z,30.13
2018-09-21T01:08:01.990Z,22.13
2018-09-21T01:10:31.187Z,34.87
2018-09-21T01:13:00.315Z,24.70
2018-09-21T01:15:29.476Z,31.03
2018-09-21T01:17:58.653Z,25.50
2018-09-21T01:20:27.776Z,28.87
2018-09-21T01:22:56.941Z,34.20
2018-09-21T01:25:26.209Z,28.03
2018-09-21T01:27:55.349Z,29.73
2018-09-21T01:30:24.498Z,26.77
2018-09-21T01:32:53.729Z,29.07
2018-09-21T01:35:23.033Z,25.27
2018-09-21T01:37:52.319Z,29.60
2018-09-21T01:40:22.242Z,32.53
2018-09-21T01:42:51.366Z,26.63
2018-09-21T01:45:20.550Z,26.20
2018-09-21T01:47:49.712Z,28.97
2018-09-21T01:50:18.869Z,27.47
2018-09-21T01:52:48.018Z,27.50
2018-09-21T01:55:17.170Z,22.50
2018-09-21T01:57:46.930Z,22.60
2018-09-21T02:00:16.133Z,22.70
2018-09-21T02:02:45.257Z,24.03
2018-09-21T02:05:14.427Z,24.80
2018-09-21T02:07:43.561Z,22.50
2018-09-21T02:10:14.444Z,20.63
2018-09-21T02:12:43.583Z,22.50
2018-09-21T02:15:12.725Z,26.37
2018-09-21T02:17:41.885Z,25.13
2018-09-21T02:20:11.010Z,23.70
2018-09-21T02:22:40.183Z,25.50
2018-09-21T02:25:09.379Z,24.90
2018-09-21T02:27:38.513Z,27.43
2018-09-21T02:30:07.740Z,30.93
2018-09-21T02:32:36.892Z,24.53
2018-09-21T02:35:06.488Z,36.93
2018-09-21T02:37:35.623Z,34.37
2018-09-21T02:40:04.991Z,26.53
2018-09-21T02:42:34.142Z,29.60
2018-09-21T02:45:03.292Z,29.83
2018-09-21T02:47:32.461Z,30.90
2018-09-21T02:50:01.599Z,35.57
2018-09-21T02:52:30.788Z,25.73
2018-09-21T02:54:59.933Z,32.37
2018-09-21T02:57:29.120Z,27.40
2018-09-21T02:59:58.491Z,24.93
2018-09-21T03:02:27.684Z,24.60
2018-09-21T03:04:57.401Z,24.90
2018-09-21T03:07:26.596Z,31.70
2018-09-21T03:09:55.926Z,29.00
2018-09-21T03:12:25.093Z,25.40
2018-09-21T03:14:54.284Z,28.13
2018-09-21T03:17:23.424Z,28.13
2018-09-21T03:19:52.580Z,23.00
2018-09-21T03:22:21.716Z,29.13
2018-09-21T03:24:50.913Z,31.13
2018-09-21T03:27:20.062Z,27.50
2018-09-21T03:29:49.193Z,22.63
2018-09-21T03:32:18.357Z,23.73
2018-09-21T03:34:47.542Z,27.13
2018-09-21T03:37:16.691Z,33.30
2018-09-21T03:39:45.845Z,25.80
2018-09-21T03:42:14.997Z,29.13
2018-09-21T03:44:44.133Z,29.23
2018-09-21T03:47:13.263Z,36.20
2018-09-21T03:49:42.668Z,29.87
2018-09-21T03:52:11.821Z,30.73
2018-09-21T03:54:40.993Z,33.47
2018-09-21T03:57:10.179Z,32.33
2018-09-21T03:59:39.325Z,31.87
2018-09-21T04:02:08.560Z,27.57
2018-09-21T04:04:41.182Z,31.03
2018-09-21T04:07:11.113Z,30.50
2018-09-21T04:09:40.277Z,28.40
2018-09-21T04:12:09.412Z,30.23
2018-09-21T04:14:38.582Z,26.47
2018-09-21T04:17:07.968Z,33.77
2018-09-21T04:19:37.197Z,33.00
2018-09-21T04:22:06.357Z,29.93
2018-09-21T04:24:35.507Z,27.10
2018-09-21T04:27:04.839Z,51.63
2018-09-21T04:29:34.107Z,41.63
2018-09-21T04:32:03.329Z,54.27
2018-09-21T04:34:32.579Z,41.17
2018-09-21T04:37:01.761Z,36.67
2018-09-21T04:39:31.228Z,39.30
2018-09-21T04:42:00.344Z,31.60
2018-09-21T04:44:29.487Z,42.87
2018-09-21T04:46:58.615Z,42.87
2018-09-21T04:49:27.733Z,48.73
2018-09-21T04:51:56.903Z,38.53
2018-09-21T04:54:26.024Z,39.27
2018-09-21T04:56:55.253Z,37.80
2018-09-21T04:59:24.409Z,57.37
2018-09-21T05:01:53.529Z,34.13
2018-09-21T05:04:22.694Z,31.13
2018-09-21T05:06:51.907Z,39.77
2018-09-21T05:09:21.048Z,44.73
2018-09-21T05:11:50.205Z,33.20
2018-09-21T05:14:19.421Z,33.77
2018-09-21T05:16:48.606Z,38.33
2018-09-21T05:19:17.778Z,43.47
2018-09-21T05:21:46.932Z,33.50
2018-09-21T05:24:16.051Z,46.77
2018-09-21T05:26:45.173Z,43.13
2018-09-21T05:29:14.316Z,43.47
2018-09-21T05:31:43.454Z,41.63
2018-09-21T05:34:12.632Z,43.00
2018-09-21T05:36:41.742Z,36.00
2018-09-21T05:39:13.094Z,38.83
2018-09-21T05:41:42.254Z,43.53
2018-09-21T05:44:12.076Z,55.47
2018-09-21T05:46:41.981Z,45.87
2018-09-21T05:49:11.137Z,50.00
2018-09-21T05:51:40.323Z,44.87
2018-09-21T05:54:09.448Z,43.83
2018-09-21T05:56:39.331Z,47.83
2018-09-21T05:59:08.593Z,50.30
2018-09-21T06:01:37.794Z,53.73
2018-09-21T06:04:07.054Z,53.13
2018-09-21T06:06:36.241Z,44.33
2018-09-21T06:09:08.561Z,52.50
2018-09-21T06:11:37.818Z,45.00
2018-09-21T06:14:07.331Z,41.30
2018-09-21T06:16:36.397Z,42.03
2018-09-21T06:19:05.806Z,49.40
2018-09-21T06:21:35.285Z,50.13
2018-09-21T06:24:04.923Z,58.37
2018-09-21T06:26:34.052Z,55.87
2018-09-21T06:29:03.198Z,48.53
2018-09-21T06:31:32.340Z,48.13
2018-09-21T06:34:01.489Z,55.60
2018-09-21T06:36:30.623Z,49.07
2018-09-21T06:38:59.796Z,46.60
2018-09-21T06:41:28.967Z,42.73
2018-09-21T06:43:58.468Z,49.63
2018-09-21T06:46:27.597Z,39.20
2018-09-21T06:48:56.724Z,43.90
2018-09-21T06:51:25.874Z,39.00
2018-09-21T06:53:55.054Z,55.30
2018-09-21T06:56:25.079Z,46.97
2018-09-21T06:58:55.090Z,39.13
2018-09-21T07:01:24.898Z,42.30
2018-09-21T07:03:54.233Z,50.10
2018-09-21T07:06:23.462Z,43.50
2018-09-21T07:08:54.321Z,44.93
2018-09-21T07:11:23.678Z,45.50
2018-09-21T07:13:53.213Z,39.47
2018-09-21T07:16:22.718Z,42.07
2018-09-21T07:18:52.594Z,40.80
2018-09-21T07:21:22.595Z,35.83
2018-09-21T07:23:51.769Z,44.83
2018-09-21T07:26:20.940Z,36.17
2018-09-21T07:28:50.658Z,36.57
2018-09-21T07:31:19.836Z,34.53
2018-09-21T07:33:49.126Z,49.00
2018-09-21T07:36:18.248Z,34.13
2018-09-21T07:38:47.552Z,38.53
2018-09-21T07:41:16.905Z,30.43
2018-09-21T07:43:46.601Z,39.33
2018-09-21T07:46:15.968Z,29.63
2018-09-21T07:48:45.170Z,47.93
2018-09-21T07:51:14.372Z,39.53
2018-09-21T07:53:43.689Z,29.83
2018-09-21T07:56:13.045Z,37.43
2018-09-21T07:58:42.270Z,35.43
2018-09-21T08:01:11.529Z,29.73
2018-09-21T08:03:40.825Z,31.73
2018-09-21T08:06:10.052Z,29.20
2018-09-21T08:08:39.300Z,31.77
2018-09-21T08:11:08.810Z,26.77
2018-09-21T08:13:37.986Z,26.30
2018-09-21T08:16:07.149Z,30.10
2018-09-21T08:18:36.360Z,35.70
2018-09-21T08:21:05.673Z,29.97
2018-09-21T08:23:35.348Z,25.10
2018-09-21T08:26:04.464Z,24.00
2018-09-21T08:28:34.242Z,30.67
2018-09-21T08:31:03.759Z,26.00
2018-09-21T08:33:33.140Z,27.43
2018-09-21T08:36:02.394Z,29.60
2018-09-21T08:38:31.842Z,24.40
2018-09-21T08:41:01.154Z,23.03
2018-09-21T08:43:30.381Z,39.03
2018-09-21T08:46:00.901Z,24.77
2018-09-21T08:48:30.106Z,30.03
2018-09-21T08:50:59.252Z,23.17
2018-09-21T08:53:29.209Z,25.60
2018-09-21T08:55:58.465Z,23.50
2018-09-21T08:58:27.574Z,23.03
2018-09-21T09:00:57.069Z,22.13
2018-09-21T09:03:26.352Z,26.33
2018-09-21T09:05:55.549Z,23.90
2018-09-21T09:08:26.065Z,25.20
2018-09-21T09:10:55.411Z,25.63
2018-09-21T09:13:24.609Z,29.43
2018-09-21T09:15:54.021Z,20.80
2018-09-21T09:18:23.208Z,20.93
2018-09-21T09:20:52.365Z,24.90
2018-09-21T09:23:21.846Z,29.60
2018-09-21T09:25:51.128Z,19.87
2018-09-21T09:28:20.299Z,26.57
2018-09-21T09:30:49.744Z,28.00
2018-09-21T09:33:18.882Z,21.73
2018-09-21T09:35:48.039Z,27.03
2018-09-21T09:38:17.214Z,18.13
2018-09-21T09:40:46.482Z,16.83
2018-09-21T09:43:15.653Z,18.97
2018-09-21T09:45:44.790Z,23.43
2018-09-21T09:48:14.054Z,16.83
2018-09-21T09:50:43.179Z,13.80
2018-09-21T09:53:12.353Z,15.73
2018-09-21T09:55:41.507Z,16.37
2018-09-21T09:58:10.705Z,20.60
2018-09-21T10:00:45.233Z,13.77
2018-09-21T10:03:14.447Z,15.10
2018-09-21T10:05:44.512Z,26.60
2018-09-21T10:08:14.241Z,15.40
2018-09-21T10:10:43.406Z,17.47
2018-09-21T10:13:12.579Z,18.03
2018-09-21T10:15:41.765Z,12.10
2018-09-21T10:18:10.940Z,10.30
2018-09-21T10:20:40.338Z,14.63
2018-09-21T10:23:09.634Z,10.27
2018-09-21T10:25:38.755Z,9.70
2018-09-21T10:28:08.086Z,13.13
2018-09-21T10:30:37.190Z,9.67
2018-09-21T10:33:06.493Z,10.40
2018-09-21T10:35:35.703Z,10.70
2018-09-21T10:38:04.776Z,10.30
2018-09-21T10:40:33.927Z,10.30
2018-09-21T10:43:03.206Z,13.47
2018-09-21T10:45:32.221Z,15.03
2018-09-21T10:48:01.347Z,8.93
2018-09-21T10:50:30.482Z,11.00
2018-09-21T10:52:59.666Z,13.60
2018-09-21T10:55:28.815Z,10.10
2018-09-21T10:57:58.009Z,9.67
2018-09-21T11:00:28.164Z,8.60
2018-09-21T11:02:57.301Z,13.43
2018-09-21T11:05:26.460Z,9.53
2018-09-21T11:07:55.596Z,9.47
2018-09-21T11:10:24.717Z,12.53
2018-09-21T11:12:53.889Z,9.90
2018-09-21T11:15:23.016Z,8.60
2018-09-21T11:17:52.802Z,10.57
2018-09-21T11:20:21.938Z,10.57
2018-09-21T11:22:51.153Z,10.43
2018-09-21T11:25:20.281Z,10.00
2018-09-21T11:27:49.401Z,10.40
2018-09-21T11:30:18.587Z,10.67
2018-09-21T11:32:47.969Z,11.10
2018-09-21T11:35:17.149Z,10.40
2018-09-21T11:37:46.611Z,8.27
2018-09-21T11:40:15.869Z,11.93
2018-09-21T11:42:45.040Z,8.83
2018-09-21T11:45:14.451Z,11.23
2018-09-21T11:47:47.402Z,7.97
2018-09-21T11:50:16.652Z,7.67
2018-09-21T11:52:45.758Z,8.70
2018-09-21T11:55:15.093Z,8.97
2018-09-21T11:57:44.331Z,17.97
2018-09-21T12:00:13.546Z,14.50
2018-09-21T12:02:46.507Z,6.37
2018-09-21T12:05:15.737Z,11.77
2018-09-21T12:07:44.873Z,7.13
2018-09-21T12:10:14.169Z,5.80
2018-09-21T12:12:43.392Z,6.53
2018-09-21T12:15:12.565Z,10.47
2018-09-21T12:17:41.791Z,6.87
2018-09-21T12:20:10.948Z,5.93
2018-09-21T12:22:40.129Z,5.93
2018-09-21T12:25:09.382Z,6.07
2018-09-21T12:27:38.640Z,6.70
2018-09-21T12:30:15.309Z,5.57
2018-09-21T12:32:44.452Z,5.83
2018-09-21T12:35:13.657Z,7.00
2018-09-21T12:37:42.877Z,5.50
2018-09-21T12:40:12.236Z,6.60
2018-09-21T12:42:41.349Z,5.30
2018-09-21T12:45:10.579Z,5.03
2018-09-21T12:47:39.763Z,5.10
2018-09-21T12:50:08.957Z,5.60
2018-09-21T12:52:38.482Z,9.93
2018-09-21T12:55:07.847Z,7.37
2018-09-21T12:57:37.192Z,6.13
2018-09-21T13:00:08.526Z,5.70
2018-09-21T13:02:38.155Z,7.23
2018-09-21T13:05:07.711Z,13.90
2018-09-21T13:07:37.663Z,7.00
2018-09-21T13:10:08.436Z,6.90
2018-09-21T13:12:38.132Z,6.57
2018-09-21T13:15:07.637Z,6.93
2018-09-21T13:17:36.840Z,5.50
2018-09-21T13:20:06.339Z,6.27
2018-09-21T13:22:35.591Z,6.17
2018-09-21T13:25:04.896Z,6.13
2018-09-21T13:27:34.663Z,6.17
2018-09-21T13:30:04.828Z,6.40
2018-09-21T13:32:34.031Z,6.43
2018-09-21T13:35:03.300Z,8.43
2018-09-21T13:37:32.478Z,7.90
2018-09-21T13:40:01.653Z,8.07
2018-09-21T13:42:30.825Z,6.70
2018-09-21T13:45:00.053Z,8.17
2018-09-21T13:47:29.217Z,6.70
2018-09-21T13:49:58.360Z,7.57
2018-09-21T13:52:27.557Z,8.27
2018-09-21T13:54:56.744Z,6.23
2018-09-21T13:57:26.189Z,5.97
2018-09-21T13:59:55.545Z,6.30
2018-09-21T14:02:24.735Z,6.47
2018-09-21T14:04:54.052Z,9.00
2018-09-21T14:07:23.296Z,6.20
2018-09-21T14:09:52.617Z,5.40
2018-09-21T14:12:21.822Z,5.70
2018-09-21T14:14:51.129Z,6.43
2018-09-21T14:17:20.293Z,6.53
2018-09-21T14:19:49.761Z,5.77
2018-09-21T14:22:18.935Z,6.77
2018-09-21T14:24:48.181Z,5.40
2018-09-21T14:27:17.365Z,5.53
2018-09-21T14:29:46.612Z,10.67
2018-09-21T14:32:16.137Z,5.17
2018-09-21T14:34:45.509Z,5.53
2018-09-21T14:37:15.073Z,5.87
2018-09-21T14:39:44.264Z,15.30
2018-09-21T14:42:13.761Z,7.40
2018-09-21T14:44:42.989Z,6.57
2018-09-21T14:47:13.260Z,7.93
2018-09-21T14:49:42.503Z,6.93
2018-09-21T14:52:11.951Z,6.10
2018-09-21T14:54:41.050Z,5.73
2018-09-21T14:57:10.245Z,6.03
2018-09-21T14:59:40.773Z,5.97
2018-09-21T15:02:10.082Z,5.43
2018-09-21T15:04:39.383Z,7.33
2018-09-21T15:07:09.148Z,6.13
2018-09-21T15:09:38.472Z,5.00
2018-09-21T15:12:07.693Z,5.50
2018-09-21T15:14:38.453Z,6.40
2018-09-21T15:17:07.813Z,5.63
2018-09-21T15:19:36.991Z,5.57
2018-09-21T15:22:06.530Z,6.70
2018-09-21T15:24:35.718Z,6.57
2018-09-21T15:27:05.285Z,5.70
2018-09-21T15:29:34.399Z,7.03
2018-09-21T15:32:03.553Z,7.90
2018-09-21T15:34:32.691Z,5.37
2018-09-21T15:37:01.832Z,6.50
2018-09-21T15:39:30.938Z,6.00
2018-09-21T15:42:01.023Z,8.43
2018-09-21T15:44:30.171Z,7.93
2018-09-21T15:46:59.332Z,6.17
2018-09-21T15:49:28.534Z,5.93
2018-09-21T15:51:57.756Z,6.93
2018-09-21T15:54:27.152Z,10.23
2018-09-21T15:56:56.373Z,6.87
2018-09-21T15:59:25.566Z,6.97
2018-09-21T16:01:54.766Z,13.53
2018-09-21T16:04:23.900Z,12.57
2018-09-21T16:06:53.079Z,6.50
2018-09-21T16:09:22.212Z,6.00
2018-09-21T16:11:51.343Z,6.00
2018-09-21T16:14:20.535Z,7.13
2018-09-21T16:16:49.652Z,9.00
2018-09-21T16:19:19.898Z,6.37
2018-09-21T16:21:49.389Z,11.13
2018-09-21T16:24:18.553Z,8.23
2018-09-21T16:26:48.011Z,12.27
2018-09-21T16:29:17.449Z,7.00
2018-09-21T16:31:46.606Z,10.40
2018-09-21T16:34:16.022Z,9.30
2018-09-21T16:36:45.483Z,8.40
2018-09-21T16:39:14.668Z,6.83
2018-09-21T16:41:44.046Z,6.83
2018-09-21T16:44:13.266Z,7.30
2018-09-21T16:46:42.784Z,19.13
2018-09-21T16:49:12.248Z,14.93
2018-09-21T16:51:41.453Z,16.57
2018-09-21T16:54:10.561Z,13.47
2018-09-21T16:56:40.452Z,13.73
2018-09-21T16:59:09.627Z,32.90
2018-09-21T17:01:38.754Z,26.23
2018-09-21T17:04:08.775Z,23.63
2018-09-21T17:06:37.954Z,9.07
2018-09-21T17:09:09.985Z,27.67
2018-09-21T17:11:39.125Z,27.17
2018-09-21T17:14:09.225Z,18.83
2018-09-21T17:16:38.694Z,19.70
2018-09-21T17:19:08.537Z,14.77
2018-09-21T17:21:37.737Z,30.70
2018-09-21T17:24:07.014Z,27.53
2018-09-21T17:26:36.475Z,17.23
2018-09-21T17:29:05.817Z,36.17
2018-09-21T17:31:35.131Z,10.57
2018-09-21T17:34:04.253Z,21.77
2018-09-21T17:36:33.471Z,12.43
2018-09-21T17:39:02.738Z,18.43
2018-09-21T17:41:31.864Z,22.17
2018-09-21T17:44:01.094Z,12.33
2018-09-21T17:46:30.251Z,10.13
2018-09-21T17:48:59.682Z,11.40
2018-09-21T17:51:29.298Z,11.47
2018-09-21T17:53:58.460Z,11.57
2018-09-21T17:56:27.628Z,15.30
2018-09-21T17:58:56.765Z,14.60
2018-09-21T18:01:26.101Z,11.10
2018-09-21T18:03:55.338Z,14.00
2018-09-21T18:06:24.496Z,12.83
2018-09-21T18:08:53.676Z,15.37
2018-09-21T18:11:23.770Z,10.50
2018-09-21T18:13:53.001Z,12.70
2018-09-21T18:16:22.252Z,13.03
2018-09-21T18:18:51.450Z,19.53
2018-09-21T18:21:20.587Z,11.20
2018-09-21T18:23:49.980Z,14.13
2018-09-21T18:26:19.085Z,25.27
2018-09-21T18:28:48.259Z,26.27
2018-09-21T18:31:17.489Z,18.80
2018-09-21T18:33:46.687Z,28.93
2018-09-21T18:36:15.801Z,15.20
2018-09-21T18:38:45.004Z,20.20
2018-09-21T18:41:14.178Z,15.73
2018-09-21T18:43:43.426Z,13.73
2018-09-21T18:46:12.548Z,19.37
2018-09-21T18:48:41.744Z,30.20
2018-09-21T18:51:10.989Z,15.03
2018-09-21T18:53:40.825Z,18.70
2018-09-21T18:56:09.938Z,17.23
2018-09-21T18:58:39.062Z,23.10
2018-09-21T19:01:08.301Z,12.67
2018-09-21T19:03:37.441Z,14.37
2018-09-21T19:06:06.637Z,15.13
2018-09-21T19:08:35.810Z,13.30
2018-09-21T19:11:04.985Z,17.17
2018-09-21T19:13:34.148Z,28.77
2018-09-21T19:16:03.928Z,25.47
2018-09-21T19:18:33.091Z,15.80
2018-09-21T19:21:02.242Z,14.10
2018-09-21T19:23:31.437Z,14.73
2018-09-21T19:26:01.550Z,20.83
2018-09-21T19:28:30.707Z,25.60
2018-09-21T19:31:01.502Z,15.00
2018-09-21T19:33:30.672Z,25.83
2018-09-21T19:35:59.845Z,15.43
2018-09-21T19:38:29.111Z,18.27
2018-09-21T19:40:58.313Z,28.17
2018-09-21T19:43:27.510Z,22.97
2018-09-21T19:45:56.668Z,21.70
2018-09-21T19:48:25.833Z,20.23
2018-09-21T19:50:55.071Z,25.97
2018-09-21T19:53:25.445Z,16.23
2018-09-21T19:55:54.621Z,27.93
2018-09-21T19:58:23.863Z,26.53
2018-09-21T20:00:53.084Z,22.80
2018-09-21T20:03:22.685Z,24.10
2018-09-21T20:05:51.870Z,20.13
2018-09-21T20:08:21.096Z,29.43
2018-09-21T20:10:50.308Z,44.67
2018-09-21T20:13:19.582Z,40.87
2018-09-21T20:15:48.765Z,20.10
2018-09-21T20:18:18.050Z,13.47
2018-09-21T20:20:48.666Z,17.67
2018-09-21T20:23:17.788Z,13.03
2018-09-21T20:25:47.865Z,20.33
2018-09-21T20:28:17.089Z,18.90
2018-09-21T20:30:51.430Z,14.33
2018-09-21T20:33:25.675Z,20.10
2018-09-21T20:35:54.868Z,24.90
2018-09-21T20:41:02.496Z,17.93
2018-09-21T20:43:32.145Z,28.50
2018-09-21T20:46:01.293Z,33.90
2018-09-21T20:48:30.435Z,29.73
2018-09-21T20:50:59.564Z,28.30
2018-09-21T20:53:28.680Z,18.93
2018-09-21T20:55:57.854Z,27.60
2018-09-21T20:58:26.996Z,26.00
2018-09-21T21:00:56.199Z,36.00
2018-09-21T21:03:26.884Z,24.13
2018-09-21T21:05:56.002Z,19.93
2018-09-21T21:08:25.484Z,20.70
2018-09-21T21:11:04.496Z,30.00
2018-09-21T21:13:34.657Z,19.30
2018-09-21T21:16:03.837Z,27.67
2018-09-21T21:18:32.992Z,22.13
2018-09-21T21:21:02.242Z,25.27
2018-09-21T21:23:31.382Z,25.67
2018-09-21T21:26:02.213Z,22.83
2018-09-21T21:28:31.507Z,34.13
2018-09-21T21:31:00.711Z,26.30
2018-09-21T21:33:29.832Z,41.43
2018-09-21T21:35:59.337Z,28.80
2018-09-21T21:38:31.536Z,32.73
2018-09-21T21:41:00.786Z,39.87
2018-09-21T21:43:30.277Z,25.90
2018-09-21T21:46:02.379Z,26.77
2018-09-21T21:48:31.593Z,34.80
2018-09-21T21:51:03.591Z,36.37
2018-09-21T21:53:33.146Z,23.07
2018-09-21T21:56:02.322Z,25.57
2018-09-21T21:58:32.063Z,24.10
2018-09-21T22:01:06.548Z,24.70
2018-09-21T22:03:35.902Z,23.40
2018-09-21T22:06:06.687Z,20.63
2018-09-21T22:08:38.048Z,27.97
2018-09-21T22:11:16.928Z,23.40
2018-09-21T22:13:51.465Z,25.57
2018-09-21T22:16:20.699Z,19.20
2018-09-21T22:18:50.283Z,21.27
2018-09-21T22:21:19.489Z,17.67
2018-09-21T22:23:48.624Z,17.00
2018-09-21T22:26:17.824Z,20.07
2018-09-21T22:28:47.201Z,18.67
2018-09-21T22:31:16.439Z,16.97
2018-09-21T22:33:45.588Z,17.00
2018-09-21T22:36:14.744Z,14.13
2018-09-21T22:38:44.008Z,15.60
2018-09-21T22:41:13.862Z,18.60
2018-09-21T22:43:43.026Z,17.40
2018-09-21T22:46:12.228Z,20.70
2018-09-21T22:48:41.469Z,19.53
2018-09-21T22:51:10.611Z,13.73
2018-09-21T22:53:41.913Z,15.63
2018-09-21T22:56:11.106Z,14.00
2018-09-21T22:58:40.358Z,13.03
2018-09-21T23:01:10.395Z,14.13
2018-09-21T23:03:39.645Z,13.83
2018-09-21T23:06:09.076Z,15.53
2018-09-21T23:08:38.233Z,20.67
2018-09-21T23:11:07.693Z,14.47
2018-09-21T23:13:36.776Z,13.77
2018-09-21T23:16:05.953Z,14.40
2018-09-21T23:18:35.110Z,12.30
2018-09-21T23:21:04.282Z,12.17
2018-09-21T23:23:33.438Z,14.37
2018-09-21T23:26:02.650Z,10.90
2018-09-21T23:28:31.743Z,10.10
2018-09-21T23:31:00.846Z,5.13
2018-09-21T23:33:29.978Z,8.57
2018-09-21T23:35:59.096Z,3.43
2018-09-21T23:38:28.309Z,5.00
2018-09-21T23:40:57.549Z,10.80
2018-09-21T23:43:26.719Z,5.10
2018-09-21T23:45:55.839Z,2.80
2018-09-21T23:48:24.998Z,2.53
2018-09-21T23:50:54.141Z,1.27
2018-09-21T23:53:23.881Z,6.13
2018-09-21T23:55:53.044Z,2.80
2018-09-21T23:58:22.227Z,1.43
